createdAt,value
2018-03-19T00:00:09.020Z,35.30
2018-03-19T00:05:36.998Z,37.07
2018-03-19T00:08:04.633Z,35.50
2018-03-19T00:10:33.686Z,37.47
2018-03-19T00:13:02.580Z,36.90
2018-03-19T00:15:32.964Z,34.87
2018-03-19T00:18:01.440Z,35.37
2018-03-19T00:20:33.594Z,33.43
2018-03-19T00:26:04.942Z,33.90
2018-03-19T00:28:34.172Z,34.13
2018-03-19T00:31:02.631Z,33.90
2018-03-19T00:36:32.618Z,33.27
2018-03-19T00:39:02.984Z,31.97
2018-03-19T00:41:32.942Z,33.40
2018-03-19T00:44:02.865Z,34.63
2018-03-19T00:46:32.952Z,35.47
2018-03-19T00:49:03.391Z,35.20
2018-03-19T00:52:02.878Z,36.83
2018-03-19T00:54:33.858Z,36.90
2018-03-19T00:57:03.350Z,36.27
2018-03-19T01:02:41.796Z,35.37
2018-03-19T01:05:09.296Z,37.67
2018-03-19T01:07:36.849Z,36.87
2018-03-19T01:10:04.427Z,37.37
2018-03-19T01:15:37.734Z,37.50
2018-03-19T01:18:05.289Z,37.07
2018-03-19T01:20:32.857Z,37.73
2018-03-19T01:23:02.728Z,34.27
2018-03-19T01:25:32.499Z,33.37
2018-03-19T01:28:04.343Z,36.30
2018-03-19T01:31:12.997Z,34.43
2018-03-19T01:40:37.606Z,33.13
2018-03-19T01:43:05.221Z,32.80
2018-03-19T01:45:32.673Z,35.00
2018-03-19T01:48:03.866Z,32.60
2018-03-19T01:50:36.134Z,34.07
2018-03-19T01:53:03.642Z,33.40
2018-03-19T01:55:33.552Z,35.40
2018-03-19T01:58:04.093Z,34.03
2018-03-19T02:01:04.602Z,32.67
2018-03-19T02:03:33.651Z,33.23
2018-03-19T02:09:09.500Z,32.33
2018-03-19T02:11:37.025Z,34.30
2018-03-19T02:14:04.509Z,34.13
2018-03-19T02:16:34.498Z,34.87
2018-03-19T02:25:03.693Z,34.07
2018-03-19T02:43:12.350Z,36.60
2018-03-19T02:45:39.814Z,35.07
2018-03-19T02:51:02.989Z,33.57
2018-03-19T03:03:03.628Z,35.13
2018-03-19T03:05:33.050Z,34.67
2018-03-19T03:08:04.119Z,33.57
2018-03-19T03:10:32.637Z,33.27
2018-03-19T03:16:06.433Z,36.13
2018-03-19T03:30:10.608Z,33.30
2018-03-19T03:32:39.388Z,34.57
2018-03-19T03:35:07.376Z,36.87
2018-03-19T03:44:05.545Z,37.33
2018-03-19T04:20:35.075Z,33.27
2018-03-19T04:23:02.740Z,37.23
2018-03-19T04:31:41.401Z,34.20
2018-03-19T04:34:09.629Z,38.40
2018-03-19T04:36:37.122Z,39.80
2018-03-19T04:39:04.662Z,40.07
2018-03-19T04:41:34.010Z,42.17
2018-03-19T04:44:03.426Z,40.07
2018-03-19T04:55:37.797Z,36.47
2018-03-19T05:01:07.005Z,34.23
2018-03-19T05:06:36.430Z,34.57
2018-03-19T05:09:04.101Z,30.73
2018-03-19T05:11:39.154Z,32.20
2018-03-19T05:14:07.409Z,32.43
2018-03-19T05:16:35.230Z,30.30
2018-03-19T05:22:01.350Z,33.90
2018-03-19T05:27:37.396Z,33.37
2018-03-19T05:30:04.885Z,31.70
2018-03-19T05:32:33.219Z,32.70
2018-03-19T05:38:04.474Z,30.90
2018-03-19T05:40:34.557Z,33.47
2018-03-19T05:43:03.722Z,31.83
2018-03-19T05:45:39.304Z,33.93
2018-03-19T05:48:07.572Z,34.47
2018-03-19T05:53:33.653Z,32.13
2018-03-19T06:02:09.393Z,30.67
2018-03-19T06:04:37.046Z,31.50
2018-03-19T06:10:11.967Z,31.90
2018-03-19T06:12:40.257Z,32.27
2018-03-19T06:18:28.658Z,30.20
2018-03-19T06:21:04.974Z,29.60
2018-03-19T06:23:33.218Z,30.00
2018-03-19T06:26:00.795Z,31.43
2018-03-19T06:28:30.619Z,29.87
2018-03-19T06:31:02.202Z,30.30
2018-03-19T06:33:31.523Z,29.93
2018-03-19T06:36:00.801Z,32.97
2018-03-19T06:38:30.789Z,33.73
2018-03-19T06:41:00.053Z,32.47
2018-03-19T06:43:28.705Z,31.90
2018-03-19T06:46:09.473Z,33.37
2018-03-19T06:48:36.980Z,30.43
2018-03-19T06:51:05.240Z,31.40
2018-03-19T06:53:32.955Z,30.80
2018-03-19T06:59:03.449Z,31.20
2018-03-19T07:01:30.904Z,31.90
2018-03-19T07:04:00.934Z,32.77
2018-03-19T07:06:32.977Z,33.03
2018-03-19T07:09:00.406Z,30.53
2018-03-19T07:11:30.703Z,31.80
2018-03-19T07:14:13.248Z,32.30
2018-03-19T07:16:49.225Z,31.53
2018-03-19T07:19:21.066Z,32.27
2018-03-19T07:21:51.864Z,32.07
2018-03-19T07:24:20.885Z,32.10
2018-03-19T07:26:49.006Z,33.67
2018-03-19T07:29:17.890Z,34.30
2018-03-19T07:32:02.124Z,32.03
2018-03-19T07:34:41.728Z,33.30
2018-03-19T07:37:09.500Z,30.07
2018-03-19T07:46:33.547Z,31.60
2018-03-19T07:57:41.566Z,32.70
2018-03-19T08:00:09.021Z,28.50
2018-03-19T08:02:36.742Z,30.50
2018-03-19T08:05:10.482Z,31.20
2018-03-19T08:07:38.049Z,31.60
2018-03-19T08:19:37.984Z,33.33
2018-03-19T08:22:05.577Z,33.63
2018-03-19T08:24:35.189Z,32.93
2018-03-19T08:27:07.760Z,31.60
2018-03-19T08:30:01.023Z,33.30
2018-03-19T08:32:33.417Z,32.80
2018-03-19T08:35:27.413Z,33.57
2018-03-19T08:38:06.978Z,34.87
2018-03-19T08:40:35.506Z,33.00
2018-03-19T08:43:02.997Z,35.60
2018-03-19T08:45:32.533Z,33.67
2018-03-19T08:48:02.777Z,34.23
2018-03-19T08:50:33.363Z,31.20
2018-03-19T08:53:03.549Z,34.60
2018-03-19T08:58:39.542Z,31.97
2018-03-19T09:01:07.032Z,31.93
2018-03-19T09:03:34.576Z,32.87
2018-03-19T09:06:02.068Z,33.90
2018-03-19T09:11:32.102Z,35.40
2018-03-19T09:17:11.415Z,32.67
2018-03-19T09:19:38.861Z,31.30
2018-03-19T09:22:06.351Z,33.97
2018-03-19T09:24:34.217Z,33.73
2018-03-19T09:27:03.058Z,31.50
2018-03-19T09:29:34.017Z,31.13
2018-03-19T09:32:03.555Z,30.60
2018-03-19T09:34:34.328Z,33.00
2018-03-19T09:37:04.452Z,32.23
2018-03-19T09:39:34.181Z,33.97
2018-03-19T09:42:04.261Z,32.57
2018-03-19T09:44:34.401Z,32.20
2018-03-19T09:47:03.706Z,31.80
2018-03-19T09:49:34.361Z,31.90
2018-03-19T09:52:04.334Z,32.00
2018-03-19T09:54:34.356Z,33.17
2018-03-19T09:57:03.323Z,29.13
2018-03-19T09:59:33.304Z,32.10
2018-03-19T10:02:04.538Z,33.57
2018-03-19T10:04:33.399Z,31.50
2018-03-19T10:07:02.162Z,31.30
2018-03-19T10:09:33.187Z,34.20
2018-03-19T10:12:04.505Z,29.87
2018-03-19T10:14:34.348Z,31.10
2018-03-19T10:17:04.614Z,31.83
2018-03-19T10:19:33.382Z,31.20
2018-03-19T10:22:03.442Z,30.90
2018-03-19T10:45:32.845Z,31.23
2018-03-19T10:48:03.023Z,33.57
2018-03-19T10:50:32.866Z,32.43
2018-03-19T10:53:01.134Z,34.70
2018-03-19T10:55:32.051Z,32.83
2018-03-19T10:58:03.014Z,32.97
2018-03-19T11:03:39.649Z,33.27
2018-03-19T11:09:08.621Z,34.30
2018-03-19T11:11:36.141Z,31.50
2018-03-19T11:17:07.509Z,32.00
2018-03-19T11:19:35.077Z,29.57
2018-03-19T11:22:04.417Z,30.87
2018-03-19T11:24:34.716Z,31.67
2018-03-19T11:27:04.357Z,30.50
2018-03-19T11:29:32.899Z,30.40
2018-03-19T11:32:04.683Z,31.00
2018-03-19T11:41:39.164Z,31.80
2018-03-19T11:44:07.401Z,31.50
2018-03-19T11:46:34.861Z,30.17
2018-03-19T11:49:03.754Z,27.70
2018-03-19T11:51:34.561Z,29.87
2018-03-19T11:54:04.728Z,30.47
2018-03-19T11:56:34.909Z,28.70
2018-03-19T12:02:11.414Z,29.57
2018-03-19T12:04:38.901Z,29.47
2018-03-19T12:07:06.473Z,29.53
2018-03-19T12:09:34.863Z,29.60
2018-03-19T12:12:03.930Z,30.40
2018-03-19T12:14:35.483Z,29.87
2018-03-19T12:17:04.179Z,28.60
2018-03-19T12:19:34.140Z,29.03
2018-03-19T12:22:35.986Z,28.00
2018-03-19T12:25:04.312Z,29.00
2018-03-19T12:27:34.045Z,28.53
2018-03-19T12:30:02.965Z,31.53
2018-03-19T12:35:33.983Z,29.13
2018-03-19T12:38:03.122Z,27.90
2018-03-19T12:40:34.418Z,28.90
2018-03-19T12:43:03.965Z,30.80
2018-03-19T12:45:31.443Z,30.73
2018-03-19T12:48:04.026Z,29.27
2018-03-19T12:50:33.666Z,29.03
2018-03-19T12:53:03.043Z,27.73
2018-03-19T12:55:31.584Z,27.90
2018-03-19T12:58:02.038Z,30.43
2018-03-19T13:00:32.189Z,29.70
2018-03-19T13:03:02.196Z,28.73
2018-03-19T13:05:31.369Z,26.80
2018-03-19T13:08:02.103Z,28.30
2018-03-19T13:10:31.286Z,28.60
2018-03-19T13:13:02.125Z,29.20
2018-03-19T13:18:37.638Z,28.10
2018-03-19T13:21:06.778Z,27.07
2018-03-19T13:23:35.177Z,26.23
2018-03-19T13:26:04.114Z,27.60
2018-03-19T13:28:42.182Z,27.60
2018-03-19T13:31:11.877Z,29.30
2018-03-19T13:33:40.119Z,26.90
2018-03-19T13:36:07.586Z,27.77
2018-03-19T13:38:35.071Z,27.33
2018-03-19T13:41:02.525Z,27.67
2018-03-19T13:43:31.074Z,28.50
2018-03-19T13:46:03.576Z,26.80
2018-03-19T13:48:31.576Z,27.83
2018-03-19T13:53:52.550Z,27.37
2018-03-19T13:56:28.839Z,28.80
2018-03-19T13:59:03.036Z,28.53
2018-03-19T14:01:35.199Z,28.87
2018-03-19T14:04:07.318Z,28.63
2018-03-19T14:06:34.769Z,29.07
2018-03-19T14:09:06.779Z,28.43
2018-03-19T14:11:36.290Z,27.97
2018-03-19T14:14:04.121Z,28.90
2018-03-19T14:16:32.479Z,29.20
2018-03-19T14:19:00.501Z,28.20
2018-03-19T14:21:30.162Z,26.80
2018-03-19T14:24:00.305Z,28.57
2018-03-19T14:26:29.953Z,29.03
2018-03-19T14:29:03.215Z,28.13
2018-03-19T14:31:41.918Z,38.50
2018-03-19T14:47:03.845Z,28.63
2018-03-19T14:49:32.603Z,26.60
2018-03-19T14:56:05.974Z,28.00
2018-03-19T15:01:39.879Z,28.60
2018-03-19T15:04:07.362Z,27.77
2018-03-19T15:06:35.738Z,30.50
2018-03-19T15:09:06.685Z,29.67
2018-03-19T15:14:36.866Z,29.67
2018-03-19T15:17:04.332Z,29.63
2018-03-19T15:19:34.017Z,30.23
2018-03-19T15:22:02.626Z,31.23
2018-03-19T15:24:33.214Z,30.07
2018-03-19T15:27:03.842Z,31.03
2018-03-19T15:29:32.090Z,29.47
2018-03-19T15:32:01.712Z,31.10
2018-03-19T15:34:30.637Z,30.80
2018-03-19T15:37:01.268Z,33.13
2018-03-19T15:39:31.621Z,32.70
2018-03-19T15:42:01.656Z,33.90
2018-03-19T15:44:31.845Z,34.10
2018-03-19T15:47:00.498Z,34.63
2018-03-19T15:49:31.841Z,34.67
2018-03-19T15:52:07.671Z,34.80
2018-03-19T15:54:35.921Z,34.90
2018-03-19T15:57:03.391Z,34.90
2018-03-19T15:59:33.015Z,33.23
2018-03-19T16:02:37.667Z,30.50
2018-03-19T16:05:07.313Z,31.63
2018-03-19T16:07:34.999Z,30.67
2018-03-19T16:10:08.132Z,33.40
2018-03-19T16:23:07.844Z,32.60
2018-03-19T16:28:34.913Z,31.97
2018-03-19T16:31:04.233Z,31.63
2018-03-19T16:33:33.307Z,32.77
2018-03-19T16:39:03.401Z,31.23
2018-03-19T16:41:33.836Z,33.30
2018-03-19T16:50:04.519Z,33.00
2018-03-19T16:52:34.936Z,30.20
2018-03-19T16:55:03.665Z,30.83
